Ocean King D — V7TV6 — position and weather

sailwx.info

Track history (hours):
 
Tides and Currents Weather Stations Pressure Air Temp Water Temp Dewpoint Dewpoint Depression Visibility Wind Speed Wind Dir Waves Ship Positions

Ocean King D

Last reported at 2014-Sep-27 17:27 UTC. Time now 2014-Oct-01 22:27 UTC.
Position N 31°49' E 034°36'.

Length 190 m; draft 5.9 m.

Type: Cargo ship. MMSI: 538003892.

Date/timePositionNaut miles runAvg speedWind from/ knotsBaromVisibWave heightAir tempDewpointWater temp
2014-Sep-27 17:27N 31°49' E 034°36'0 0.0
2014-Sep-27 15:33N 31°49' E 034°36'0 0.0
2014-Sep-27 14:21N 31°49' E 034°36'0 0.0
2014-Sep-27 12:33N 31°49' E 034°36'0 0.0
2014-Sep-27 11:33N 31°49' E 034°36'40 1.2
2014-Sep-26 01:33N 32°06' E 033°53'15610.8
2014-Sep-25 11:04N 33°36' E 031°21'2 2.9
2014-Sep-25 10:20N 33°38' E 031°20'1311.9
2014-Sep-25 09:17N 33°44' E 031°08'15914.7
2014-Sep-24 22:28N 35°18' E 028°31'1314.5
2014-Sep-24 21:33N 35°26' E 028°18'11014.8
2014-Sep-24 14:06N 36°38' E 026°35'814.8
2014-Sep-24 13:33N 36°44' E 026°28'1615.0
2014-Sep-24 12:30N 36°55' E 026°15'1415.3
2014-Sep-24 11:33N 37°08' E 026°05'1515.4
2014-Sep-24 10:33N 37°21' E 025°56'1414.0
2014-Sep-24 09:33N 37°35' E 025°54'  
Track history (hours):
 
Tides and Currents Weather Stations Pressure Air Temp Water Temp Dewpoint Dewpoint Depression Visibility Wind Speed Wind Dir Waves Ship Positions

Ocean King D

Last reported at 2014-Sep-27 17:27 UTC. Time now 2014-Oct-01 22:27 UTC.
Position N 31°49' E 034°36'.

Length 190 m; draft 5.9 m.

Type: Cargo ship. MMSI: 538003892.

Date/timePositionNaut miles runAvg speedWind from/ knotsBaromVisibWave heightAir tempDewpointWater temp
2014-Sep-27 17:27N 31°49' E 034°36'0 0.0
2014-Sep-27 15:33N 31°49' E 034°36'0 0.0
2014-Sep-27 14:21N 31°49' E 034°36'0 0.0
2014-Sep-27 12:33N 31°49' E 034°36'0 0.0
2014-Sep-27 11:33N 31°49' E 034°36'40 1.2
2014-Sep-26 01:33N 32°06' E 033°53'15610.8
2014-Sep-25 11:04N 33°36' E 031°21'2 2.9
2014-Sep-25 10:20N 33°38' E 031°20'1311.9
2014-Sep-25 09:17N 33°44' E 031°08'15914.7
2014-Sep-24 22:28N 35°18' E 028°31'1314.5
2014-Sep-24 21:33N 35°26' E 028°18'11014.8
2014-Sep-24 14:06N 36°38' E 026°35'814.8
2014-Sep-24 13:33N 36°44' E 026°28'1615.0
2014-Sep-24 12:30N 36°55' E 026°15'1415.3
2014-Sep-24 11:33N 37°08' E 026°05'1515.4
2014-Sep-24 10:33N 37°21' E 025°56'1414.0
2014-Sep-24 09:33N 37°35' E 025°54'  

Dump ship's entire track history